Humlebaek, Denmark
Current Conditions -  °F | °C
As of 1:50 AM on Saturday 29 Nov 2014 (Local Time) from EKCH Reporting Station
Broken Clouds Broken Clouds  
Wind Chill: 29°   Ceiling: 3200
Heat Index: 37°   Visibility: 6mi
Dew Point: 30°   Wind: 15mph
Humidity: 75%   Direction: 110°ESE
Pressure: 30.3"   Gusts: NA
Location:  55.96°N, 12.53°E
Report Text: EKCH 290050Z 11013KT 9999 SCT022 BKN032 03/M01 Q1026 NOSIG
Loading
Personal Weather Stations






























Interactive Weather Map New forecast layout! Learn more

10-Day Weather Forecast

Advertisements
Track Severe Weather on mobile